Time;durP1;ratioP1;P1;durP2;ratioP2;P2;SDS_P1;SDS_P2;PMS_P1;PMS_P2;Temp;Humidity;BMP_temperature;BMP_pressure;BME280_temperature;BME280_humidity;BME280_pressure;Samples;Min_cycle;Max_cycle;Signal;HPM_P1;HPM_P2
2023/12/23 00:00:49;;;;;;;9.93;2.10;;;4.40;99.90;;;;;;4918763;29;20043;-87
2023/12/23 00:03:15;;;;;;;10.83;2.17;;;4.40;99.90;;;;;;4918175;29;20040;-87
2023/12/23 00:05:42;;;;;;;14.23;2.00;;;5.50;99.90;;;;;;4916655;29;20050;-87
2023/12/23 00:08:13;;;;;;;12.50;2.50;;;4.30;99.90;;;;;;4899236;29;20059;-87
2023/12/23 00:10:39;;;;;;;10.67;1.93;;;4.50;99.90;;;;;;4898554;29;20079;-87
2023/12/23 00:13:05;;;;;;;9.33;1.90;;;5.20;99.90;;;;;;4899084;29;20127;-87
2023/12/23 00:15:30;;;;;;;11.80;1.87;;;4.80;99.90;;;;;;4899053;29;20188;-87
2023/12/23 00:17:56;;;;;;;8.87;1.80;;;4.10;99.90;;;;;;4898071;29;20055;-87
2023/12/23 00:20:22;;;;;;;14.27;3.80;;;3.90;99.90;;;;;;4898677;29;20056;-87
2023/12/23 00:22:52;;;;;;;14.13;2.23;;;5.80;99.90;;;;;;4899381;29;20044;-87
2023/12/23 00:25:21;;;;;;;12.03;2.07;;;4.40;99.90;;;;;;4898666;29;20127;-86
2023/12/23 00:27:46;;;;;;;11.33;2.10;;;4.10;99.90;;;;;;4896186;29;20048;-87
2023/12/23 00:30:13;;;;;;;10.20;2.20;;;5.00;99.90;;;;;;4893763;29;20374;-87
2023/12/23 00:32:44;;;;;;;15.03;2.50;;;4.40;99.90;;;;;;4898212;29;20060;-87
2023/12/23 00:35:10;;;;;;;11.60;2.17;;;6.00;99.90;;;;;;4911084;29;20052;-87
2023/12/23 00:37:36;;;;;;;11.97;2.03;;;4.40;99.90;;;;;;4898668;29;20058;-87
2023/12/23 00:40:09;;;;;;;15.30;2.53;;;5.10;99.90;;;;;;4899348;29;20392;-87
2023/12/23 00:42:47;;;;;;;12.55;2.90;;;6.00;99.90;;;;;;4896711;29;20608;-87
2023/12/23 00:45:30;;;;;;;14.53;2.50;;;4.90;99.90;;;;;;4890747;29;20083;-87
2023/12/23 00:47:59;;;;;;;16.50;2.53;;;5.80;99.90;;;;;;4897916;29;20517;-87
2023/12/23 00:50:25;;;;;;;12.63;2.50;;;6.60;99.90;;;;;;4914294;29;20059;-87
2023/12/23 00:52:50;;;;;;;14.63;2.40;;;5.00;99.90;;;;;;4920437;29;20116;-87
2023/12/23 00:55:17;;;;;;;11.63;1.90;;;5.70;99.90;;;;;;4921169;29;20036;-87
2023/12/23 00:57:43;;;;;;;13.73;2.57;;;6.20;99.90;;;;;;4921634;29;20059;-87
2023/12/23 01:00:09;;;;;;;16.27;2.40;;;5.00;99.90;;;;;;4920695;29;20043;-87
2023/12/23 01:02:34;;;;;;;12.60;2.53;;;5.10;99.90;;;;;;4921608;29;20504;-88
2023/12/23 01:05:00;;;;;;;12.97;2.60;;;4.80;99.90;;;;;;4920836;29;20055;-87
2023/12/23 01:07:26;;;;;;;15.43;2.53;;;5.10;99.90;;;;;;4920372;29;20047;-88
2023/12/23 01:09:51;;;;;;;16.23;2.63;;;5.90;99.90;;;;;;4920944;29;20047;-86
2023/12/23 01:12:17;;;;;;;13.47;2.93;;;4.80;99.90;;;;;;4920813;29;20051;-87
2023/12/23 01:14:53;;;;;;;11.17;2.10;;;6.50;99.90;;;;;;4920103;29;20393;-87
2023/12/23 01:17:21;;;;;;;19.47;4.20;;;5.00;99.90;;;;;;4920983;29;20051;-87
2023/12/23 01:19:47;;;;;;;16.40;2.73;;;7.10;99.90;;;;;;4920538;29;20048;-86
2023/12/23 01:22:19;;;;;;;12.90;2.23;;;5.30;99.90;;;;;;4902103;29;20079;-87
2023/12/23 01:24:44;;;;;;;13.23;2.20;;;5.00;99.90;;;;;;4889682;29;20048;-87
2023/12/23 01:27:10;;;;;;;17.57;2.90;;;6.50;99.90;;;;;;4901116;29;20063;-87
2023/12/23 01:29:38;;;;;;;13.63;2.40;;;5.30;99.90;;;;;;4902300;29;20055;-88
2023/12/23 01:32:13;;;;;;;14.27;2.57;;;7.10;99.90;;;;;;4901512;29;20060;-87
2023/12/23 01:34:39;;;;;;;15.77;2.37;;;5.30;99.90;;;;;;4901881;29;20488;-87
2023/12/23 01:37:05;;;;;;;18.47;2.80;;;6.60;99.90;;;;;;4902131;29;20052;-88
2023/12/23 01:39:30;;;;;;;12.60;2.20;;;5.30;99.90;;;;;;4902064;29;20063;-87
2023/12/23 01:42:05;;;;;;;12.50;2.33;;;5.40;99.90;;;;;;4902234;29;20052;-87
2023/12/23 01:44:31;;;;;;;13.03;2.57;;;5.50;99.90;;;;;;4901484;29;20036;-87
2023/12/23 01:47:00;;;;;;;12.80;2.17;;;6.50;99.90;;;;;;4901312;29;20055;-87
2023/12/23 01:49:28;;;;;;;12.07;2.30;;;7.40;99.90;;;;;;4900630;29;20079;-88
2023/12/23 01:51:55;;;;;;;12.27;2.90;;;5.20;99.90;;;;;;4901134;29;20103;-87
2023/12/23 01:54:30;;;;;;;11.20;1.97;;;4.80;99.90;;;;;;4901292;29;20051;-87
2023/12/23 01:57:08;;;;;;;14.73;2.47;;;5.50;99.90;;;;;;4900843;29;20064;-87
2023/12/23 01:59:33;;;;;;;13.67;2.37;;;5.60;99.90;;;;;;4901685;29;20056;-87
2023/12/23 02:02:03;;;;;;;15.07;2.40;;;5.90;99.90;;;;;;4915772;29;20056;-87
2023/12/23 02:04:29;;;;;;;14.10;2.40;;;5.60;99.90;;;;;;4904754;29;20039;-87
2023/12/23 02:06:55;;;;;;;16.37;2.60;;;5.50;99.90;;;;;;4920046;29;20386;-87
2023/12/23 02:09:20;;;;;;;14.07;2.40;;;5.50;99.90;;;;;;4918909;29;20111;-88
2023/12/23 02:12:11;;;;;;;14.77;2.93;;;7.10;99.90;;;;;;4918326;29;20463;-88
2023/12/23 02:15:07;;;;;;;10.53;2.10;;;5.60;99.90;;;;;;4888264;29;20044;-87
2023/12/23 02:17:42;;;;;;;13.33;2.27;;;5.90;99.90;;;;;;4882346;29;20509;-87
2023/12/23 02:20:09;;;;;;;9.67;2.40;;;4.40;99.90;;;;;;4889627;29;20040;-86
2023/12/23 02:22:45;;;;;;;11.43;1.80;;;5.70;99.90;;;;;;4901228;29;20062;-87
2023/12/23 02:25:11;;;;;;;14.13;2.30;;;7.30;99.90;;;;;;4899936;29;20135;-87
2023/12/23 02:27:45;;;;;;;10.43;2.20;;;7.40;99.90;;;;;;4901313;29;20485;-87
2023/12/23 02:30:24;;;;;;;14.98;2.28;;;6.50;99.90;;;;;;4900101;29;20051;-88
2023/12/23 02:32:50;;;;;;;10.63;2.03;;;5.80;99.90;;;;;;4900380;29;20480;-87
2023/12/23 02:35:16;;;;;;;14.77;2.27;;;6.00;99.90;;;;;;4900801;29;20044;-86
2023/12/23 02:37:42;;;;;;;13.53;2.37;;;6.10;99.90;;;;;;4899751;29;20060;-87
2023/12/23 02:40:14;;;;;;;10.27;1.83;;;5.50;99.90;;;;;;4900447;29;20056;-87
2023/12/23 02:42:48;;;;;;;13.63;2.20;;;5.50;99.90;;;;;;4900780;29;20075;-87
2023/12/23 02:45:14;;;;;;;13.17;1.93;;;5.40;99.90;;;;;;4900081;29;20040;-86
2023/12/23 02:47:44;;;;;;;12.40;2.00;;;5.60;99.90;;;;;;4900514;29;20718;-86
2023/12/23 02:50:10;;;;;;;11.50;2.43;;;7.50;99.90;;;;;;4900230;29;20044;-87
2023/12/23 02:52:35;;;;;;;13.73;2.17;;;5.40;99.90;;;;;;4899472;29;20139;-86
2023/12/23 02:55:01;;;;;;;11.80;3.27;;;5.90;99.90;;;;;;4900217;29;20104;-86
2023/12/23 02:57:27;;;;;;;10.27;1.80;;;5.50;99.90;;;;;;4900400;29;20131;-86
2023/12/23 02:59:52;;;;;;;15.67;2.50;;;7.30;99.90;;;;;;4898729;29;20040;-86
2023/12/23 03:02:18;;;;;;;10.87;1.90;;;;;;;;;;4896874;29;20494;-86
2023/12/23 03:04:44;;;;;;;11.30;1.60;;;5.50;99.90;;;;;;4883573;29;20057;-86
2023/12/23 03:07:10;;;;;;;9.87;1.53;;;6.90;99.90;;;;;;4899442;29;20051;-87
2023/12/23 03:09:36;;;;;;;10.17;1.70;;;5.00;99.90;;;;;;4900059;29;20056;-86
2023/12/23 03:12:02;;;;;;;13.23;1.83;;;4.90;99.90;;;;;;4899809;29;20050;-86
2023/12/23 03:14:28;;;;;;;8.97;1.70;;;5.20;99.90;;;;;;4898663;29;20052;-85
2023/12/23 03:16:53;;;;;;;11.30;1.70;;;6.70;99.90;;;;;;4899788;29;20078;-86
2023/12/23 03:19:19;;;;;;;8.93;1.53;;;6.30;99.90;;;;;;4900020;29;20067;-85
2023/12/23 03:21:46;;;;;;;10.87;1.63;;;5.20;99.90;;;;;;4899615;29;20051;-86
2023/12/23 03:24:14;;;;;;;12.13;2.30;;;3.80;99.90;;;;;;4899824;29;20051;-85
2023/12/23 03:26:40;;;;;;;12.97;1.97;;;4.90;99.90;;;;;;4899316;29;20572;-85
2023/12/23 03:29:05;;;;;;;13.17;2.27;;;4.90;99.90;;;;;;4899718;29;20084;-86
2023/12/23 03:31:32;;;;;;;10.07;1.57;;;5.90;99.90;;;;;;4899266;29;20064;-85
2023/12/23 03:33:59;;;;;;;9.43;1.40;;;5.00;99.90;;;;;;4898757;29;20055;-86
2023/12/23 03:36:25;;;;;;;13.40;1.67;;;5.90;99.90;;;;;;4916651;29;20055;-85
2023/12/23 03:38:50;;;;;;;12.13;2.00;;;4.90;99.90;;;;;;4900035;29;20051;-86
2023/12/23 03:41:16;;;;;;;8.53;1.40;;;4.90;99.90;;;;;;4899523;29;20515;-85
2023/12/23 03:43:42;;;;;;;10.77;1.90;;;4.90;99.90;;;;;;4904843;29;20063;-85
2023/12/23 03:46:27;;;;;;;10.50;1.80;;;4.70;99.90;;;;;;4899478;29;20047;-86
2023/12/23 03:48:53;;;;;;;9.43;1.87;;;4.80;99.90;;;;;;4900658;29;20489;-86
2023/12/23 03:51:18;;;;;;;11.63;3.17;;;6.20;99.90;;;;;;4899266;29;20064;-86
2023/12/23 03:53:44;;;;;;;10.10;1.90;;;5.50;99.90;;;;;;4899330;29;20051;-86
2023/12/23 03:56:10;;;;;;;10.67;1.50;;;;;;;;;;4898672;29;20090;-86
2023/12/23 03:58:35;;;;;;;10.10;1.83;;;4.90;99.90;;;;;;4916452;29;20044;-86
2023/12/23 04:01:02;;;;;;;9.00;1.60;;;4.60;99.90;;;;;;4899081;29;20048;-86
2023/12/23 04:03:28;;;;;;;10.27;1.63;;;5.70;99.90;;;;;;4898501;29;20159;-86
2023/12/23 04:05:54;;;;;;;8.80;2.00;;;4.60;99.90;;;;;;4899360;29;20036;-86
2023/12/23 04:08:20;;;;;;;9.30;1.90;;;4.60;99.90;;;;;;4899501;29;20052;-85
2023/12/23 04:10:45;;;;;;;10.10;2.40;;;4.60;99.90;;;;;;4898929;29;20044;-85
2023/12/23 04:13:11;;;;;;;12.67;1.90;;;6.40;99.90;;;;;;4899545;29;20051;-85
2023/12/23 04:15:37;;;;;;;9.50;1.90;;;5.30;99.90;;;;;;4898644;29;20047;-85
2023/12/23 04:18:02;;;;;;;9.37;1.90;;;4.60;99.90;;;;;;4898842;29;20127;-85
2023/12/23 04:20:28;;;;;;;13.20;2.17;;;4.90;99.90;;;;;;4915824;29;20040;-85
2023/12/23 04:22:54;;;;;;;8.27;1.97;;;5.50;99.90;;;;;;4915266;29;20131;-85
2023/12/23 04:25:19;;;;;;;8.53;2.10;;;5.90;99.90;;;;;;4901185;29;20481;-85
2023/12/23 04:27:45;;;;;;;14.40;2.07;;;4.60;99.90;;;;;;4918740;29;20454;-85
2023/12/23 04:30:11;;;;;;;8.80;2.27;;;4.50;99.90;;;;;;4902408;29;20065;-85
2023/12/23 04:32:36;;;;;;;11.17;2.80;;;4.90;99.90;;;;;;4902675;29;20180;-85
2023/12/23 04:35:28;;;;;;;10.57;2.30;;;5.90;99.90;;;;;;4902650;29;20063;-84
2023/12/23 04:37:53;;;;;;;12.53;2.07;;;5.90;99.90;;;;;;4901629;29;20079;-85
2023/12/23 04:40:19;;;;;;;10.00;1.70;;;4.90;99.90;;;;;;4919753;29;20081;-85
2023/12/23 04:42:45;;;;;;;8.93;1.70;;;5.70;99.90;;;;;;4902798;29;20052;-85
2023/12/23 04:45:14;;;;;;;9.70;1.73;;;5.00;99.90;;;;;;4901416;29;20052;-85
2023/12/23 04:47:39;;;;;;;9.07;1.77;;;4.90;99.90;;;;;;4902360;29;20051;-85
2023/12/23 04:50:06;;;;;;;8.60;1.60;;;4.90;99.90;;;;;;4902600;29;20044;-85
2023/12/23 04:52:31;;;;;;;14.60;1.97;;;4.90;99.90;;;;;;4918517;29;20036;-85
2023/12/23 04:54:59;;;;;;;13.33;2.17;;;6.20;99.90;;;;;;4902236;29;20040;-85
2023/12/23 04:57:26;;;;;;;9.67;1.77;;;4.60;99.90;;;;;;4919599;29;20134;-86
2023/12/23 04:59:55;;;;;;;11.13;1.90;;;5.00;99.90;;;;;;4901555;29;20099;-86
2023/12/23 05:02:20;;;;;;;7.83;1.70;;;6.00;99.90;;;;;;4900134;29;20043;-85
2023/12/23 05:04:46;;;;;;;10.67;1.70;;;5.50;99.90;;;;;;4886979;29;20048;-85
2023/12/23 05:07:12;;;;;;;8.07;1.90;;;5.60;99.90;;;;;;4897265;29;20103;-85
2023/12/23 05:09:37;;;;;;;7.43;1.97;;;4.30;99.90;;;;;;4902192;29;20059;-86
2023/12/23 05:12:03;;;;;;;6.07;1.70;;;4.80;99.90;;;;;;4901246;29;20130;-86
2023/12/23 05:14:29;;;;;;;9.27;1.80;;;4.90;99.90;;;;;;4902666;29;20040;-86
2023/12/23 05:16:55;;;;;;;8.97;1.87;;;5.00;99.90;;;;;;4924472;29;20044;-85
2023/12/23 05:19:20;;;;;;;8.23;1.67;;;5.00;99.90;;;;;;4920771;29;20056;-85
2023/12/23 05:21:48;;;;;;;9.30;1.93;;;5.00;99.90;;;;;;4902449;29;20139;-86
2023/12/23 05:24:14;;;;;;;8.50;1.70;;;4.90;99.90;;;;;;4901920;29;20077;-86
2023/12/23 05:26:40;;;;;;;14.97;2.27;;;5.00;99.90;;;;;;4916729;29;20048;-86
2023/12/23 05:29:05;;;;;;;8.60;2.07;;;4.90;99.90;;;;;;4901921;29;20385;-85
2023/12/23 05:31:31;;;;;;;11.37;1.97;;;4.90;99.90;;;;;;4917499;29;20052;-86
2023/12/23 05:33:57;;;;;;;10.60;1.83;;;4.90;99.90;;;;;;4900659;29;20242;-86
2023/12/23 05:36:23;;;;;;;5.43;1.67;;;5.20;99.90;;;;;;4900945;29;20076;-86
2023/12/23 05:38:49;;;;;;;5.43;1.70;;;5.20;99.90;;;;;;4901966;29;20134;-86
2023/12/23 05:41:14;;;;;;;6.57;1.80;;;4.90;99.90;;;;;;4906606;29;20130;-86
2023/12/23 05:43:40;;;;;;;6.13;1.67;;;4.90;99.90;;;;;;4920728;29;20051;-86
2023/12/23 05:46:05;;;;;;;6.20;1.77;;;4.90;99.90;;;;;;4920274;29;20050;-86
2023/12/23 05:48:31;;;;;;;7.67;1.50;;;5.00;99.90;;;;;;4919999;29;20459;-86
2023/12/23 05:50:57;;;;;;;6.90;1.70;;;6.50;99.90;;;;;;4919717;29;20063;-86
2023/12/23 05:53:22;;;;;;;6.17;1.40;;;5.00;99.90;;;;;;4920438;29;20047;-86
2023/12/23 05:55:48;;;;;;;4.80;1.50;;;5.00;99.90;;;;;;4919472;29;20107;-86
2023/12/23 05:58:14;;;;;;;8.13;1.80;;;5.00;99.90;;;;;;4920365;29;20396;-86
2023/12/23 06:00:39;;;;;;;9.83;1.90;;;5.00;99.90;;;;;;4920224;29;20496;-86
2023/12/23 06:03:05;;;;;;;6.37;1.70;;;5.00;99.90;;;;;;4919388;29;20556;-86
2023/12/23 06:05:30;;;;;;;7.60;1.90;;;5.00;99.90;;;;;;4904589;29;20079;-86
2023/12/23 06:07:57;;;;;;;10.07;2.47;;;5.10;99.90;;;;;;4900750;29;20126;-86
2023/12/23 06:10:23;;;;;;;8.33;2.20;;;5.10;99.90;;;;;;4900488;29;20046;-86
2023/12/23 06:12:50;;;;;;;9.03;2.30;;;6.30;99.90;;;;;;4901110;29;20471;-86
2023/12/23 06:15:15;;;;;;;8.50;2.17;;;5.50;99.90;;;;;;4900298;29;20070;-86
2023/12/23 06:17:41;;;;;;;9.77;2.50;;;6.40;99.90;;;;;;4901120;29;20385;-86
2023/12/23 06:20:07;;;;;;;8.87;2.40;;;5.00;99.90;;;;;;4917835;29;20051;-86
2023/12/23 06:22:33;;;;;;;6.67;1.90;;;5.20;99.90;;;;;;4899686;29;20083;-86
2023/12/23 06:24:59;;;;;;;7.00;2.00;;;5.20;99.90;;;;;;4900733;29;20450;-86
2023/12/23 06:27:24;;;;;;;7.73;2.00;;;5.30;99.90;;;;;;4909744;29;20039;-86
2023/12/23 06:29:50;;;;;;;8.40;2.17;;;5.60;99.90;;;;;;4917748;29;20056;-87
2023/12/23 06:32:15;;;;;;;8.17;2.00;;;5.80;99.90;;;;;;4900766;29;20071;-86
2023/12/23 06:34:41;;;;;;;8.43;2.07;;;5.80;99.90;;;;;;4901122;29;20131;-86
2023/12/23 06:37:09;;;;;;;6.63;1.90;;;6.10;99.90;;;;;;4899800;29;20511;-86
2023/12/23 06:44:52;;;;;;;10.57;2.20;;;6.40;99.90;;;;;;5057769;23;20059;-86
2023/12/23 06:47:18;;;;;;;8.10;1.90;;;6.50;99.90;;;;;;4902106;29;20044;-86
2023/12/23 06:49:43;;;;;;;8.07;1.80;;;7.60;99.90;;;;;;4900506;29;20520;-87
2023/12/23 06:52:09;;;;;;;7.10;1.93;;;7.10;99.90;;;;;;4896215;29;20540;-86
2023/12/23 06:54:35;;;;;;;8.37;2.27;;;6.50;99.90;;;;;;4883435;29;20421;-87
2023/12/23 06:57:00;;;;;;;8.87;2.30;;;7.20;99.90;;;;;;4881395;29;20044;-86
2023/12/23 06:59:32;;;;;;;5.57;1.47;;;6.90;99.90;;;;;;4881138;29;20048;-86
2023/12/23 07:01:58;;;;;;;6.40;1.70;;;6.90;99.90;;;;;;4881502;29;20052;-87
2023/12/23 07:04:29;;;;;;;7.77;1.83;;;6.80;99.90;;;;;;4881583;29;20387;-86
2023/12/23 07:07:07;;;;;;;7.77;1.63;;;7.90;99.90;;;;;;4881526;29;20063;-87
2023/12/23 07:09:33;;;;;;;6.33;1.70;;;8.60;99.90;;;;;;4897206;29;20101;-89
2023/12/23 07:11:59;;;;;;;10.57;1.67;;;8.30;99.90;;;;;;4880442;29;20071;-87
2023/12/23 07:14:31;;;;;;;9.10;1.63;;;8.10;99.90;;;;;;4881362;29;20485;-87
2023/12/23 07:17:12;;;;;;;5.67;1.40;;;6.80;99.90;;;;;;4897869;29;20056;-84
2023/12/23 07:19:37;;;;;;;5.20;1.33;;;6.30;99.90;;;;;;4880836;29;20054;-86
2023/12/23 07:22:03;;;;;;;2.63;1.10;;;6.00;99.90;;;;;;4881359;29;20396;-85
2023/12/23 07:24:28;;;;;;;3.90;1.20;;;5.90;99.90;;;;;;4880990;29;20475;-85
2023/12/23 07:26:54;;;;;;;2.93;1.10;;;5.30;99.90;;;;;;4880626;29;20107;-85
2023/12/23 07:29:20;;;;;;;5.23;1.00;;;6.20;99.90;;;;;;4898357;29;20066;-84
2023/12/23 07:31:46;;;;;;;1.03;0.70;;;6.70;99.90;;;;;;4880750;29;20127;-84
2023/12/23 07:34:12;;;;;;;4.40;1.20;;;6.10;99.90;;;;;;4880084;29;20131;-85
2023/12/23 07:36:39;;;;;;;0.90;0.67;;;4.90;99.90;;;;;;4897896;29;20052;-85
2023/12/23 07:39:05;;;;;;;2.43;0.80;;;5.70;99.90;;;;;;4880630;29;20052;-86
2023/12/23 07:41:31;;;;;;;4.73;1.20;;;5.50;99.90;;;;;;4880247;29;20131;-86
2023/12/23 07:43:56;;;;;;;3.77;1.40;;;4.50;99.90;;;;;;4894101;29;20453;-86
2023/12/23 07:46:22;;;;;;;3.20;1.10;;;4.50;99.90;;;;;;4881370;29;20064;-86
2023/12/23 07:48:48;;;;;;;3.40;1.30;;;4.90;99.90;;;;;;4880223;29;20485;-86
2023/12/23 07:51:14;;;;;;;5.23;1.37;;;4.80;99.90;;;;;;4884305;29;20497;-87
2023/12/23 07:53:40;;;;;;;3.43;1.30;;;4.90;99.90;;;;;;4880545;29;20064;-86
2023/12/23 07:56:07;;;;;;;3.33;1.20;;;4.60;99.90;;;;;;4897667;29;20045;-87
2023/12/23 07:58:33;;;;;;;5.07;2.30;;;4.60;99.90;;;;;;4896611;29;20048;-85
2023/12/23 08:00:58;;;;;;;3.63;1.37;;;4.70;99.90;;;;;;4879554;29;20052;-86
2023/12/23 08:04:16;;;;;;;4.17;1.40;;;4.60;99.90;;;;;;4881041;29;20048;-86
2023/12/23 08:06:41;;;;;;;4.07;1.30;;;4.80;99.90;;;;;;4809781;29;20195;-87
2023/12/23 08:09:10;;;;;;;4.23;1.50;;;5.20;99.90;;;;;;4879297;29;20475;-85
2023/12/23 08:11:36;;;;;;;4.10;1.40;;;4.20;99.90;;;;;;4879403;29;20489;-86
2023/12/23 08:14:02;;;;;;;6.27;2.03;;;4.30;99.90;;;;;;4879840;29;20096;-86
2023/12/23 08:16:28;;;;;;;7.67;1.90;;;4.40;99.90;;;;;;4879310;29;20091;-87
2023/12/23 08:18:54;;;;;;;6.70;1.87;;;4.40;99.90;;;;;;4879413;29;20068;-85
2023/12/23 08:21:21;;;;;;;8.07;2.00;;;4.40;99.90;;;;;;4880878;29;20147;-85
2023/12/23 08:23:46;;;;;;;8.30;2.10;;;4.40;99.90;;;;;;4880063;29;20051;-86
2023/12/23 08:26:12;;;;;;;8.67;1.60;;;4.30;99.90;;;;;;4880250;29;20048;-85
2023/12/23 08:28:38;;;;;;;7.83;1.90;;;4.30;99.90;;;;;;4881461;29;20040;-85
2023/12/23 08:31:03;;;;;;;8.00;2.00;;;4.80;99.90;;;;;;4879880;29;20044;-84
2023/12/23 08:33:29;;;;;;;6.37;1.80;;;4.30;99.90;;;;;;4879652;29;20541;-84
2023/12/23 08:35:56;;;;;;;7.00;1.90;;;4.30;99.90;;;;;;4878805;29;20028;-84
2023/12/23 08:38:21;;;;;;;6.73;2.00;;;4.20;99.90;;;;;;4879921;29;20048;-84
2023/12/23 08:40:47;;;;;;;7.83;1.90;;;4.20;99.90;;;;;;4879908;29;20060;-84
2023/12/23 08:43:15;;;;;;;7.10;2.10;;;4.20;99.90;;;;;;4878594;29;20061;-84
2023/12/23 08:46:06;;;;;;;7.13;1.97;;;4.20;99.90;;;;;;4896096;29;20433;-84
2023/12/23 08:48:31;;;;;;;6.10;1.90;;;5.20;99.90;;;;;;4880132;29;20053;-84
2023/12/23 08:51:13;;;;;;;6.40;1.87;;;4.70;99.90;;;;;;4879444;29;20469;-84
2023/12/23 08:53:45;;;;;;;5.83;1.60;;;4.90;99.90;;;;;;4880353;29;20051;-84
2023/12/23 08:56:11;;;;;;;5.87;1.70;;;3.80;99.90;;;;;;4880011;29;20556;-84
2023/12/23 08:58:37;;;;;;;6.03;1.80;;;5.00;99.90;;;;;;4879550;29;20087;-84
2023/12/23 09:01:11;;;;;;;5.50;1.67;;;4.10;99.90;;;;;;4879864;29;20267;-84
2023/12/23 09:03:37;;;;;;;5.90;1.70;;;4.10;99.90;;;;;;4880392;29;20049;-84
2023/12/23 09:06:11;;;;;;;6.37;1.70;;;3.90;99.90;;;;;;4879686;29;20059;-84
2023/12/23 09:08:51;;;;;;;;;;;4.20;99.90;;;;;;4880699;29;20055;-84
2023/12/23 09:11:16;;;;;;;5.67;1.73;;;4.20;99.90;;;;;;4897587;29;19924;-83
2023/12/23 09:13:45;;;;;;;5.47;1.50;;;4.30;99.90;;;;;;4883559;29;20135;-84
2023/12/23 09:16:11;;;;;;;6.83;1.70;;;5.20;99.90;;;;;;4882980;29;20067;-84
2023/12/23 09:18:36;;;;;;;5.87;1.60;;;4.30;99.90;;;;;;4882591;29;20048;-83
2023/12/23 09:21:02;;;;;;;5.13;1.40;;;5.20;99.90;;;;;;4883166;29;20067;-84
2023/12/23 09:23:30;;;;;;;4.47;1.60;;;4.20;99.90;;;;;;4883473;29;20044;-83
2023/12/23 09:25:56;;;;;;;4.83;1.60;;;5.50;99.90;;;;;;4899274;29;20089;-84
2023/12/23 09:28:25;;;;;;;4.47;1.40;;;3.90;99.90;;;;;;4883573;29;20041;-84
2023/12/23 09:30:53;;;;;;;5.43;1.80;;;4.40;99.90;;;;;;4883268;29;20041;-84
2023/12/23 09:33:19;;;;;;;12.03;6.10;;;4.40;99.90;;;;;;4882399;29;20042;-84
2023/12/23 09:35:44;;;;;;;7.13;2.27;;;5.90;99.90;;;;;;4883626;29;20108;-84
2023/12/23 09:38:13;;;;;;;6.90;1.77;;;5.40;99.90;;;;;;4882903;29;20148;-84
2023/12/23 09:40:48;;;;;;;7.40;2.00;;;4.30;99.90;;;;;;4899167;29;20052;-84
2023/12/23 09:43:34;;;;;;;4.93;1.70;;;5.20;99.90;;;;;;4899489;29;20152;-84
2023/12/23 09:46:04;;;;;;;5.20;1.60;;;4.40;99.90;;;;;;4882561;29;20073;-84
2023/12/23 09:48:30;;;;;;;6.87;2.20;;;4.50;99.90;;;;;;4899342;29;20432;-84
2023/12/23 09:50:56;;;;;;;6.37;1.97;;;4.00;99.90;;;;;;4882799;29;20041;-84
2023/12/23 09:53:32;;;;;;;6.17;2.00;;;4.00;99.90;;;;;;4882165;29;20076;-84
2023/12/23 09:55:58;;;;;;;6.30;1.80;;;4.30;99.90;;;;;;4883031;29;20405;-85
2023/12/23 09:58:23;;;;;;;5.90;1.80;;;5.90;99.90;;;;;;4882808;29;20059;-84
2023/12/23 10:00:55;;;;;;;6.00;1.90;;;5.10;99.90;;;;;;4882256;29;20052;-84
2023/12/23 10:03:24;;;;;;;6.73;1.80;;;6.10;99.90;;;;;;4899427;29;20132;-84
2023/12/23 10:06:00;;;;;;;6.43;1.90;;;5.90;99.90;;;;;;4899532;29;20056;-84
2023/12/23 10:08:39;;;;;;;8.10;2.37;;;4.70;99.90;;;;;;4882053;29;20123;-84
2023/12/23 10:11:18;;;;;;;7.40;2.23;;;5.00;99.90;;;;;;4882285;29;20048;-84
2023/12/23 10:14:03;;;;;;;7.73;2.20;;;6.50;99.90;;;;;;4882560;29;20052;-84
2023/12/23 10:16:30;;;;;;;7.63;2.13;;;4.70;99.90;;;;;;4882129;29;20178;-84
2023/12/23 10:18:56;;;;;;;7.60;2.50;;;4.60;99.90;;;;;;4882054;29;20053;-84
2023/12/23 10:21:22;;;;;;;9.80;3.07;;;4.50;99.90;;;;;;4898018;29;20052;-84
2023/12/23 10:23:47;;;;;;;7.97;2.80;;;6.00;99.90;;;;;;4882217;29;20047;-85
2023/12/23 10:26:26;;;;;;;8.00;2.77;;;4.50;99.90;;;;;;4898788;29;20123;-84
2023/12/23 10:29:16;;;;;;;8.77;2.40;;;6.20;99.90;;;;;;4881440;29;20135;-85
2023/12/23 10:31:45;;;;;;;7.50;2.30;;;5.80;99.90;;;;;;4897677;29;20052;-84
2023/12/23 10:34:26;;;;;;;8.43;2.33;;;4.80;99.90;;;;;;4882307;29;20481;-84
2023/12/23 10:37:05;;;;;;;7.73;2.33;;;4.70;99.90;;;;;;4881044;29;20045;-84
2023/12/23 10:39:34;;;;;;;7.13;2.40;;;3.80;99.90;;;;;;4882397;29;20091;-84
2023/12/23 10:42:20;;;;;;;8.43;2.90;;;4.30;99.90;;;;;;4882069;29;20059;-84
2023/12/23 10:45:12;;;;;;;8.33;2.63;;;4.40;99.90;;;;;;4880699;29;20062;-84
2023/12/23 10:47:38;;;;;;;8.43;2.80;;;3.30;99.90;;;;;;4881892;29;20056;-85
2023/12/23 10:50:17;;;;;;;8.23;2.50;;;5.00;99.90;;;;;;4881116;29;20050;-84
2023/12/23 10:52:43;;;;;;;9.93;2.90;;;5.00;99.90;;;;;;4881952;29;20163;-84
2023/12/23 10:55:29;;;;;;;9.57;2.60;;;4.80;99.90;;;;;;4899438;29;20084;-84
2023/12/23 10:57:55;;;;;;;9.70;2.93;;;5.80;99.90;;;;;;4882180;29;20108;-85
2023/12/23 11:00:50;;;;;;;12.03;2.80;;;5.60;99.90;;;;;;4882116;29;20056;-83
2023/12/23 11:03:27;;;;;;;12.23;2.83;;;5.00;99.90;;;;;;4881622;29;20480;-85
2023/12/23 11:06:07;;;;;;;10.10;2.63;;;6.90;99.90;;;;;;4880575;29;20140;-84
2023/12/23 11:08:34;;;;;;;31.53;14.60;;;5.60;99.90;;;;;;4881906;29;20048;-84
2023/12/23 11:11:13;;;;;;;14.37;3.23;;;7.20;99.90;;;;;;4880242;29;20052;-84
2023/12/23 11:13:52;;;;;;;12.23;3.27;;;6.00;99.90;;;;;;4881688;29;20057;-84
2023/12/23 11:16:18;;;;;;;23.03;6.70;;;7.30;99.90;;;;;;4881389;29;20044;-85
2023/12/23 11:19:14;;;;;;;17.77;5.17;;;8.00;99.90;;;;;;4895412;29;20052;-84
2023/12/23 11:21:40;;;;;;;36.17;11.93;;;6.50;99.90;;;;;;4881084;29;20060;-84
2023/12/23 11:24:33;;;;;;;38.67;10.53;;;7.10;99.90;;;;;;4881518;29;20112;-85
2023/12/23 11:26:59;;;;;;;41.67;12.32;;;7.80;99.90;;;;;;4880330;29;20131;-85
2023/12/23 11:29:38;;;;;;;37.00;9.23;;;9.00;99.90;;;;;;4881825;29;20152;-85
2023/12/23 11:32:24;;;;;;;70.87;25.23;;;9.30;99.90;;;;;;4880261;29;20572;-85
2023/12/23 11:34:58;;;;;;;126.73;42.30;;;7.60;99.90;;;;;;4880430;29;20052;-85
2023/12/23 11:38:04;;;;;;;61.92;17.92;;;7.90;99.90;;;;;;4881390;29;20374;-85
2023/12/23 11:40:31;;;;;;;53.13;17.63;;;8.20;99.90;;;;;;4880692;29;20088;-85
2023/12/23 11:43:08;;;;;;;;;;;;;;;;;;;;;
2023/12/23 11:46:34;;;;;;;54.60;20.30;;;8.30;99.90;;;;;;4880069;29;20092;-85
2023/12/23 11:49:12;;;;;;;49.97;19.27;;;8.20;99.90;;;;;;4880672;29;20063;-85
2023/12/23 11:51:55;;;;;;;55.17;20.27;;;9.10;99.90;;;;;;4878351;29;20060;-85
2023/12/23 11:54:21;;;;;;;36.63;12.38;;;10.20;99.90;;;;;;4880754;29;20441;-85
2023/12/23 11:56:50;;;;;;;43.25;12.68;;;8.80;99.90;;;;;;4882514;29;20170;-85
2023/12/23 11:59:24;;;;;;;39.95;15.27;;;7.40;99.90;;;;;;4888971;29;20048;-85
2023/12/23 12:01:50;;;;;;;28.93;9.20;;;8.50;99.90;;;;;;4895969;29;20556;-84
2023/12/23 12:04:17;;;;;;;28.38;6.40;;;8.50;99.90;;;;;;4881001;29;20139;-85
2023/12/23 12:06:48;;;;;;;27.83;8.17;;;8.50;99.90;;;;;;4882140;29;20060;-86
2023/12/23 12:09:29;;;;;;;40.55;15.50;;;10.30;99.90;;;;;;4880806;29;20052;-85
2023/12/23 12:12:05;;;;;;;33.80;11.60;;;10.40;99.90;;;;;;4896366;29;20048;-85
2023/12/23 12:14:31;;;;;;;32.17;11.00;;;8.70;99.90;;;;;;4880418;29;20044;-85
2023/12/23 12:17:06;;;;;;;18.27;4.22;;;8.70;99.90;;;;;;4880016;29;20199;-85
2023/12/23 12:19:35;;;;;;;37.30;12.23;;;8.60;99.90;;;;;;4881122;29;20044;-85
2023/12/23 12:22:16;;;;;;;31.23;11.32;;;9.60;99.90;;;;;;4880014;29;20060;-85
2023/12/23 12:24:57;;;;;;;17.67;4.53;;;9.40;99.90;;;;;;4897820;29;20048;-85
2023/12/23 12:27:35;;;;;;;28.85;10.98;;;9.60;99.90;;;;;;4880858;29;20143;-85
2023/12/23 12:30:26;;;;;;;38.03;11.55;;;10.40;99.90;;;;;;4879936;29;20505;-85
2023/12/23 12:33:02;;;;;;;25.35;9.35;;;7.70;99.90;;;;;;4880664;29;20481;-85
2023/12/23 12:35:31;;;;;;;19.07;4.37;;;8.70;99.90;;;;;;4879648;29;20108;-85
2023/12/23 12:37:57;;;;;;;22.03;7.03;;;8.80;99.90;;;;;;4879873;29;20092;-85
2023/12/23 12:40:34;;;;;;;21.67;8.97;;;8.90;99.90;;;;;;4900481;23;20577;-85
2023/12/23 12:43:05;;;;;;;20.77;5.07;;;10.40;99.90;;;;;;4877550;29;20180;-85
2023/12/23 12:45:49;;;;;;;18.00;4.93;;;8.80;99.90;;;;;;4880222;29;20502;-85
2023/12/23 12:48:20;;;;;;;17.67;5.60;;;9.60;99.90;;;;;;4900769;29;20049;-85
2023/12/23 12:50:58;;;;;;;19.73;4.85;;;10.10;99.90;;;;;;4883028;29;20048;-86
2023/12/23 12:53:25;;;;;;;17.55;3.53;;;10.20;99.90;;;;;;4884242;29;20457;-86
2023/12/23 12:55:51;;;;;;;20.27;3.78;;;9.30;99.90;;;;;;4883840;29;20056;-85
2023/12/23 12:58:18;;;;;;;18.33;3.40;;;9.00;99.90;;;;;;4883067;29;20437;-85
2023/12/23 13:00:59;;;;;;;21.35;3.40;;;10.50;99.90;;;;;;4884150;29;20040;-86
2023/12/23 13:03:40;;;;;;;;;;;10.10;99.90;;;;;;4900754;29;20169;-85
2023/12/23 13:06:16;;;;;;;14.38;3.80;;;8.90;99.90;;;;;;4883427;29;19974;-87
2023/12/23 13:08:42;;;;;;;17.45;3.30;;;8.90;99.90;;;;;;4900748;29;20565;-85
2023/12/23 13:11:10;;;;;;;12.35;2.67;;;10.00;99.90;;;;;;4899858;29;20044;-85